sensor_id;sensor_type;location;lat;lon;timestamp;pressure;altitude;pressure_sealevel;temperature;humidity
76586;BME280;65251;51.022;13.736;2023-02-22T00:00:19;99441.09;;;10.38;66.81
76586;BME280;65251;51.022;13.736;2023-02-22T00:00:53;99436.97;;;10.35;67.66
76586;BME280;65251;51.022;13.736;2023-02-22T00:01:25;99431.66;;;10.35;67.21
76586;BME280;65251;51.022;13.736;2023-02-22T00:02:04;99431.66;;;10.35;67.73
76586;BME280;65251;51.022;13.736;2023-02-22T00:02:43;99427.13;;;10.36;66.87
76586;BME280;65251;51.022;13.736;2023-02-22T00:03:16;99431.84;;;10.34;67.58
76586;BME280;65251;51.022;13.736;2023-02-22T00:03:54;99426.72;;;10.32;66.90
76586;BME280;65251;51.022;13.736;2023-02-22T00:04:24;99427.34;;;10.34;67.47
76586;BME280;65251;51.022;13.736;2023-02-22T00:04:57;99432.84;;;10.33;67.57
76586;BME280;65251;51.022;13.736;2023-02-22T00:05:28;99427.53;;;10.33;67.59
76586;BME280;65251;51.022;13.736;2023-02-22T00:06:03;99436.34;;;10.33;67.45
76586;BME280;65251;51.022;13.736;2023-02-22T00:06:34;99422.00;;;10.34;67.14
76586;BME280;65251;51.022;13.736;2023-02-22T00:07:05;99431.03;;;10.33;67.08
76586;BME280;65251;51.022;13.736;2023-02-22T00:07:37;99424.25;;;10.31;66.64
76586;BME280;65251;51.022;13.736;2023-02-22T00:08:09;99422.41;;;10.31;67.45
76586;BME280;65251;51.022;13.736;2023-02-22T00:08:40;99429.38;;;10.32;66.93
76586;BME280;65251;51.022;13.736;2023-02-22T00:09:12;99429.56;;;10.31;67.69
76586;BME280;65251;51.022;13.736;2023-02-22T00:09:49;99430.97;;;10.27;67.35
76586;BME280;65251;51.022;13.736;2023-02-22T00:10:20;99433.59;;;10.20;67.28
76586;BME280;65251;51.022;13.736;2023-02-22T00:10:53;99429.69;;;10.16;67.70
76586;BME280;65251;51.022;13.736;2023-02-22T00:11:25;99426.22;;;10.16;67.32
76586;BME280;65251;51.022;13.736;2023-02-22T00:11:56;99426.22;;;10.16;68.30
76586;BME280;65251;51.022;13.736;2023-02-22T00:12:29;99431.97;;;10.19;67.15
76586;BME280;65251;51.022;13.736;2023-02-22T00:13:00;99426.41;;;10.14;67.28
76586;BME280;65251;51.022;13.736;2023-02-22T00:13:31;99429.50;;;10.18;67.95
76586;BME280;65251;51.022;13.736;2023-02-22T00:14:03;99426.22;;;10.16;67.38
76586;BME280;65251;51.022;13.736;2023-02-22T00:14:33;99426.84;;;10.18;67.25
76586;BME280;65251;51.022;13.736;2023-02-22T00:15:04;99431.97;;;10.19;68.22
76586;BME280;65251;51.022;13.736;2023-02-22T00:15:35;99422.53;;;10.17;68.14
76586;BME280;65251;51.022;13.736;2023-02-22T00:16:07;99425.38;;;10.15;68.06
76586;BME280;65251;51.022;13.736;2023-02-22T00:16:37;99429.06;;;10.14;68.42
76586;BME280;65251;51.022;13.736;2023-02-22T00:17:08;99433.38;;;10.15;68.43
76586;BME280;65251;51.022;13.736;2023-02-22T00:17:43;99426.22;;;10.16;66.98
76586;BME280;65251;51.022;13.736;2023-02-22T00:18:16;99426.84;;;10.18;68.03
76586;BME280;65251;51.022;13.736;2023-02-22T00:18:49;99426.22;;;10.16;67.01
76586;BME280;65251;51.022;13.736;2023-02-22T00:19:19;99433.59;;;10.20;67.30
76586;BME280;65251;51.022;13.736;2023-02-22T00:19:50;99427.47;;;10.20;67.39
76586;BME280;65251;51.022;13.736;2023-02-22T00:20:21;99428.28;;;10.20;66.90
76586;BME280;65251;51.022;13.736;2023-02-22T00:20:54;99428.91;;;10.22;66.95
76586;BME280;65251;51.022;13.736;2023-02-22T00:21:24;99428.72;;;10.24;67.33
76586;BME280;65251;51.022;13.736;2023-02-22T00:21:55;99432.00;;;10.26;67.64
76586;BME280;65251;51.022;13.736;2023-02-22T00:22:27;99426.47;;;10.27;67.30
76586;BME280;65251;51.022;13.736;2023-02-22T00:22:58;99425.84;;;10.25;66.93
76586;BME280;65251;51.022;13.736;2023-02-22T00:23:32;99431.59;;;10.29;66.98
76586;BME280;65251;51.022;13.736;2023-02-22T00:24:04;99424.25;;;10.31;67.45
76586;BME280;65251;51.022;13.736;2023-02-22T00:24:52;99426.09;;;10.30;67.65
76586;BME280;65251;51.022;13.736;2023-02-22T00:25:23;99420.97;;;10.29;67.73
76586;BME280;65251;51.022;13.736;2023-02-22T00:25:57;99433.25;;;10.30;67.47
76586;BME280;65251;51.022;13.736;2023-02-22T00:26:32;99425.47;;;10.28;66.56
76586;BME280;65251;51.022;13.736;2023-02-22T00:27:03;99421.59;;;10.31;67.95
76586;BME280;65251;51.022;13.736;2023-02-22T00:27:34;99422.41;;;10.31;67.10
76586;BME280;65251;51.022;13.736;2023-02-22T00:28:05;99415.25;;;10.32;67.45
76586;BME280;65251;51.022;13.736;2023-02-22T00:28:36;99419.75;;;10.31;67.69
76586;BME280;65251;51.022;13.736;2023-02-22T00:29:08;99420.75;;;10.30;67.77
76586;BME280;65251;51.022;13.736;2023-02-22T00:29:43;99420.97;;;10.29;66.69
76586;BME280;65251;51.022;13.736;2023-02-22T00:30:17;99423.63;;;10.29;67.92
76586;BME280;65251;51.022;13.736;2023-02-22T00:30:49;99407.81;;;10.21;67.20
76586;BME280;65251;51.022;13.736;2023-02-22T00:31:21;99417.66;;;10.27;67.29
76586;BME280;65251;51.022;13.736;2023-02-22T00:31:51;99420.31;;;10.27;67.47
76586;BME280;65251;51.022;13.736;2023-02-22T00:32:23;99413.56;;;10.24;68.15
76586;BME280;65251;51.022;13.736;2023-02-22T00:32:55;99424.41;;;10.23;66.83
76586;BME280;65251;51.022;13.736;2023-02-22T00:33:26;99415.59;;;10.22;67.32
76586;BME280;65251;51.022;13.736;2023-02-22T00:33:58;99422.97;;;10.20;68.19
76586;BME280;65251;51.022;13.736;2023-02-22T00:34:29;99416.19;;;10.18;66.98
76586;BME280;65251;51.022;13.736;2023-02-22T00:35:00;99411.88;;;10.17;68.06
76586;BME280;65251;51.022;13.736;2023-02-22T00:35:34;99417.19;;;10.17;67.28
76586;BME280;65251;51.022;13.736;2023-02-22T00:36:06;99416.19;;;10.18;67.31
76586;BME280;65251;51.022;13.736;2023-02-22T00:36:37;99419.03;;;10.16;67.39
76586;BME280;65251;51.022;13.736;2023-02-22T00:37:09;99409.59;;;10.14;67.10
76586;BME280;65251;51.022;13.736;2023-02-22T00:37:39;99417.78;;;10.12;67.48
76586;BME280;65251;51.022;13.736;2023-02-22T00:38:12;99412.22;;;10.07;67.61
76586;BME280;65251;51.022;13.736;2023-02-22T00:38:45;99409.75;;;10.06;67.71
76586;BME280;65251;51.022;13.736;2023-02-22T00:39:16;99413.44;;;10.05;68.34
76586;BME280;65251;51.022;13.736;2023-02-22T00:39:48;99408.50;;;10.01;67.84
76586;BME280;65251;51.022;13.736;2023-02-22T00:40:22;99416.28;;;10.03;68.36
76586;BME280;65251;51.022;13.736;2023-02-22T00:40:53;99416.50;;;10.01;68.33
76586;BME280;65251;51.022;13.736;2023-02-22T00:41:24;99417.50;;;10.00;67.52
76586;BME280;65251;51.022;13.736;2023-02-22T00:41:56;99413.44;;;9.98;67.63
76586;BME280;65251;51.022;13.736;2023-02-22T00:42:27;99409.94;;;9.97;67.75
76586;BME280;65251;51.022;13.736;2023-02-22T00:42:59;99412.59;;;9.97;67.55
76586;BME280;65251;51.022;13.736;2023-02-22T00:43:31;99414.84;;;9.94;67.60
76586;BME280;65251;51.022;13.736;2023-02-22T00:44:02;99415.03;;;9.92;68.54
76586;BME280;65251;51.022;13.736;2023-02-22T00:44:33;99407.25;;;9.91;67.76
76586;BME280;65251;51.022;13.736;2023-02-22T00:45:05;99414.41;;;9.90;68.97
76586;BME280;65251;51.022;13.736;2023-02-22T00:45:36;99419.09;;;9.88;68.01
76586;BME280;65251;51.022;13.736;2023-02-22T00:46:07;99411.69;;;9.84;68.17
76586;BME280;65251;51.022;13.736;2023-02-22T00:46:39;99418.03;;;9.83;68.30
76586;BME280;65251;51.022;13.736;2023-02-22T00:47:10;99420.06;;;9.81;67.97
76586;BME280;65251;51.022;13.736;2023-02-22T00:47:40;99414.16;;;9.79;68.01
76586;BME280;65251;51.022;13.736;2023-02-22T00:48:11;99416.19;;;9.77;69.08
76586;BME280;65251;51.022;13.736;2023-02-22T00:48:43;99412.69;;;9.76;68.34
76586;BME280;65251;51.022;13.736;2023-02-22T00:49:14;99417.81;;;9.78;69.06
76586;BME280;65251;51.022;13.736;2023-02-22T00:49:44;99423.97;;;9.78;69.48
76586;BME280;65251;51.022;13.736;2023-02-22T00:50:16;99417.00;;;9.77;68.27
76586;BME280;65251;51.022;13.736;2023-02-22T00:50:48;99421.88;;;9.74;69.42
76586;BME280;65251;51.022;13.736;2023-02-22T00:51:19;99417.78;;;9.71;68.59
76586;BME280;65251;51.022;13.736;2023-02-22T00:51:50;99412.44;;;9.71;69.26
76586;BME280;65251;51.022;13.736;2023-02-22T00:52:22;99415.31;;;9.70;69.14
76586;BME280;65251;51.022;13.736;2023-02-22T00:52:54;99415.50;;;9.68;69.56
76586;BME280;65251;51.022;13.736;2023-02-22T00:53:26;99415.50;;;9.68;68.45
76586;BME280;65251;51.022;13.736;2023-02-22T00:53:59;99414.03;;;9.65;68.64
76586;BME280;65251;51.022;13.736;2023-02-22T00:54:30;99414.03;;;9.65;69.84
76586;BME280;65251;51.022;13.736;2023-02-22T00:55:01;99409.56;;;9.66;68.58
76586;BME280;65251;51.022;13.736;2023-02-22T00:55:35;99416.50;;;9.67;69.77
76586;BME280;65251;51.022;13.736;2023-02-22T00:56:06;99424.50;;;9.67;68.80
76586;BME280;65251;51.022;13.736;2023-02-22T00:56:37;99410.19;;;9.68;69.63
76586;BME280;65251;51.022;13.736;2023-02-22T00:57:09;99412.84;;;9.68;69.11
76586;BME280;65251;51.022;13.736;2023-02-22T00:57:40;99417.78;;;9.71;69.49
76586;BME280;65251;51.022;13.736;2023-02-22T00:58:11;99416.75;;;9.72;69.85
76586;BME280;65251;51.022;13.736;2023-02-22T00:58:42;99417.78;;;9.71;68.69
76586;BME280;65251;51.022;13.736;2023-02-22T00:59:13;99423.91;;;9.72;68.94
76586;BME280;65251;51.022;13.736;2023-02-22T00:59:45;99417.97;;;9.70;68.97
76586;BME280;65251;51.022;13.736;2023-02-22T01:00:19;99412.44;;;9.71;69.81
76586;BME280;65251;51.022;13.736;2023-02-22T01:00:51;99412.66;;;9.70;68.90
76586;BME280;65251;51.022;13.736;2023-02-22T01:01:22;99418.59;;;9.72;69.05
76586;BME280;65251;51.022;13.736;2023-02-22T01:01:53;99411.63;;;9.71;69.81
76586;BME280;65251;51.022;13.736;2023-02-22T01:02:25;99416.75;;;9.72;69.64
76586;BME280;65251;51.022;13.736;2023-02-22T01:02:56;99409.59;;;9.73;68.98
76586;BME280;65251;51.022;13.736;2023-02-22T01:03:26;99421.06;;;9.73;69.45
76586;BME280;65251;51.022;13.736;2023-02-22T01:03:58;99420.88;;;9.75;68.51
76586;BME280;65251;51.022;13.736;2023-02-22T01:04:29;99415.75;;;9.73;69.75
76586;BME280;65251;51.022;13.736;2023-02-22T01:04:59;99411.44;;;9.72;69.81
76586;BME280;65251;51.022;13.736;2023-02-22T01:05:31;99421.06;;;9.73;69.80
76586;BME280;65251;51.022;13.736;2023-02-22T01:06:03;99414.91;;;9.73;69.83
76586;BME280;65251;51.022;13.736;2023-02-22T01:06:35;99414.09;;;9.72;69.68
76586;BME280;65251;51.022;13.736;2023-02-22T01:07:06;99418.22;;;9.75;68.50
76586;BME280;65251;51.022;13.736;2023-02-22T01:07:37;99420.69;;;9.76;68.57
76586;BME280;65251;51.022;13.736;2023-02-22T01:08:09;99420.69;;;9.76;69.79
76586;BME280;65251;51.022;13.736;2023-02-22T01:08:43;99412.88;;;9.75;69.87
76586;BME280;65251;51.022;13.736;2023-02-22T01:09:15;99418.84;;;9.77;69.32
76586;BME280;65251;51.022;13.736;2023-02-22T01:09:46;99410.84;;;9.77;68.81
76586;BME280;65251;51.022;13.736;2023-02-22T01:10:19;99422.91;;;9.79;69.88
76586;BME280;65251;51.022;13.736;2023-02-22T01:10:50;99420.25;;;9.79;69.07
76586;BME280;65251;51.022;13.736;2023-02-22T01:11:22;99419.06;;;9.82;68.57
76586;BME280;65251;51.022;13.736;2023-02-22T01:11:54;99419.25;;;9.80;69.86
76586;BME280;65251;51.022;13.736;2023-02-22T01:12:26;99411.25;;;9.80;68.52
76586;BME280;65251;51.022;13.736;2023-02-22T01:12:58;99412.72;;;9.83;69.36
76586;BME280;65251;51.022;13.736;2023-02-22T01:13:30;99416.19;;;9.83;69.26
76586;BME280;65251;51.022;13.736;2023-02-22T01:14:02;99409.84;;;9.84;69.54
76586;BME280;65251;51.022;13.736;2023-02-22T01:14:32;99418.47;;;9.86;69.21
76586;BME280;65251;51.022;13.736;2023-02-22T01:15:07;99418.84;;;9.83;68.65
76586;BME280;65251;51.022;13.736;2023-02-22T01:15:42;99412.09;;;9.81;69.18
76586;BME280;65251;51.022;13.736;2023-02-22T01:16:14;99412.09;;;9.81;68.86
76586;BME280;65251;51.022;13.736;2023-02-22T01:16:45;99414.94;;;9.79;69.40
76586;BME280;65251;51.022;13.736;2023-02-22T01:17:16;99413.72;;;9.82;69.82
76586;BME280;65251;51.022;13.736;2023-02-22T01:17:48;99414.56;;;9.82;69.56
76586;BME280;65251;51.022;13.736;2023-02-22T01:18:19;99413.53;;;9.83;69.90
76586;BME280;65251;51.022;13.736;2023-02-22T01:18:51;99418.66;;;9.85;68.53
76586;BME280;65251;51.022;13.736;2023-02-22T01:19:22;99414.56;;;9.82;69.33
76586;BME280;65251;51.022;13.736;2023-02-22T01:19:53;99411.50;;;9.85;69.73
76586;BME280;65251;51.022;13.736;2023-02-22T01:20:25;99410.69;;;9.85;68.50
76586;BME280;65251;51.022;13.736;2023-02-22T01:20:58;99417.66;;;9.86;69.64
76586;BME280;65251;51.022;13.736;2023-02-22T01:21:30;99416.63;;;9.87;68.40
76586;BME280;65251;51.022;13.736;2023-02-22T01:22:01;99419.09;;;9.88;68.73
76586;BME280;65251;51.022;13.736;2023-02-22T01:22:34;99410.69;;;9.85;68.79
76586;BME280;65251;51.022;13.736;2023-02-22T01:23:06;99418.47;;;9.86;69.61
76586;BME280;65251;51.022;13.736;2023-02-22T01:23:37;99418.06;;;9.89;68.42
76586;BME280;65251;51.022;13.736;2023-02-22T01:24:08;99420.75;;;9.89;69.58
76586;BME280;65251;51.022;13.736;2023-02-22T01:24:42;99414.22;;;9.92;69.25
76586;BME280;65251;51.022;13.736;2023-02-22T01:25:17;99408.06;;;9.91;69.52
76586;BME280;65251;51.022;13.736;2023-02-22T01:25:48;99411.94;;;9.89;69.66
76586;BME280;65251;51.022;13.736;2023-02-22T01:26:20;99417.25;;;9.89;68.55
76586;BME280;65251;51.022;13.736;2023-02-22T01:26:51;99413.16;;;9.86;68.95
76586;BME280;65251;51.022;13.736;2023-02-22T01:27:22;99414.59;;;9.89;68.55
76586;BME280;65251;51.022;13.736;2023-02-22T01:27:54;99420.53;;;9.91;68.41
76586;BME280;65251;51.022;13.736;2023-02-22T01:28:26;99406.63;;;9.89;68.50
76586;BME280;65251;51.022;13.736;2023-02-22T01:28:58;99408.66;;;9.87;68.85
76586;BME280;65251;51.022;13.736;2023-02-22T01:29:29;99411.50;;;9.85;69.08
76586;BME280;65251;51.022;13.736;2023-02-22T01:30:01;99410.69;;;9.85;69.05
76586;BME280;65251;51.022;13.736;2023-02-22T01:30:37;99413.16;;;9.86;69.63
76586;BME280;65251;51.022;13.736;2023-02-22T01:31:09;99411.13;;;9.88;69.91
76586;BME280;65251;51.022;13.736;2023-02-22T01:31:42;99410.91;;;9.90;69.94
76586;BME280;65251;51.022;13.736;2023-02-22T01:32:13;99412.75;;;9.89;68.79
76586;BME280;65251;51.022;13.736;2023-02-22T01:32:44;99414.41;;;9.90;69.99
76586;BME280;65251;51.022;13.736;2023-02-22T01:33:15;99414.78;;;9.87;69.01
76586;BME280;65251;51.022;13.736;2023-02-22T01:33:46;99408.44;;;9.88;69.80
76586;BME280;65251;51.022;13.736;2023-02-22T01:34:17;99410.25;;;9.81;70.04
76586;BME280;65251;51.022;13.736;2023-02-22T01:34:51;99411.69;;;9.84;69.77
76586;BME280;65251;51.022;13.736;2023-02-22T01:35:27;99415.19;;;9.84;69.27
76586;BME280;65251;51.022;13.736;2023-02-22T01:35:59;99405.78;;;9.88;69.58
76586;BME280;65251;51.022;13.736;2023-02-22T01:36:30;99403.94;;;9.89;68.92
76586;BME280;65251;51.022;13.736;2023-02-22T01:37:01;99408.88;;;9.92;69.68
76586;BME280;65251;51.022;13.736;2023-02-22T01:37:32;99404.56;;;9.91;68.72
76586;BME280;65251;51.022;13.736;2023-02-22T01:38:03;99392.88;;;9.85;69.18
76586;BME280;65251;51.022;13.736;2023-02-22T01:38:35;99404.38;;;9.92;68.39
76586;BME280;65251;51.022;13.736;2023-02-22T01:39:05;99405.59;;;9.90;69.76
76586;BME280;65251;51.022;13.736;2023-02-22T01:39:36;99404.38;;;9.92;68.83
76586;BME280;65251;51.022;13.736;2023-02-22T01:40:14;99405.00;;;9.94;68.48
76586;BME280;65251;51.022;13.736;2023-02-22T01:40:50;99401.53;;;9.94;69.17
76586;BME280;65251;51.022;13.736;2023-02-22T01:41:21;99402.16;;;9.96;68.98
76586;BME280;65251;51.022;13.736;2023-02-22T01:41:52;99404.63;;;9.97;68.93
76586;BME280;65251;51.022;13.736;2023-02-22T01:42:24;99404.81;;;9.96;69.47
76586;BME280;65251;51.022;13.736;2023-02-22T01:42:58;99403.59;;;9.98;69.41
76586;BME280;65251;51.022;13.736;2023-02-22T01:43:31;99403.81;;;9.97;69.44
76586;BME280;65251;51.022;13.736;2023-02-22T01:44:17;99405.22;;;9.99;69.41
76586;BME280;65251;51.022;13.736;2023-02-22T01:45:59;99405.84;;;10.01;68.01
76586;BME280;65251;51.022;13.736;2023-02-22T01:46:31;99403.19;;;10.01;68.41
76586;BME280;65251;51.022;13.736;2023-02-22T01:47:04;99405.03;;;10.01;68.92
76586;BME280;65251;51.022;13.736;2023-02-22T01:47:35;99401.34;;;10.02;68.49
76586;BME280;65251;51.022;13.736;2023-02-22T01:48:10;99398.06;;;10.00;68.71
76586;BME280;65251;51.022;13.736;2023-02-22T01:48:46;99410.34;;;10.01;68.58
76586;BME280;65251;51.022;13.736;2023-02-22T01:49:18;99400.94;;;9.98;68.29
76586;BME280;65251;51.022;13.736;2023-02-22T01:49:51;99398.69;;;10.02;69.14
76586;BME280;65251;51.022;13.736;2023-02-22T01:50:23;99401.16;;;10.03;68.77
76586;BME280;65251;51.022;13.736;2023-02-22T01:50:59;99400.94;;;10.05;67.90
76586;BME280;65251;51.022;13.736;2023-02-22T01:51:34;99397.03;;;10.01;68.04
76586;BME280;65251;51.022;13.736;2023-02-22T01:52:11;99396.00;;;9.95;69.04
76586;BME280;65251;51.022;13.736;2023-02-22T01:52:43;99405.22;;;9.99;69.67
76586;BME280;65251;51.022;13.736;2023-02-22T01:53:18;99402.56;;;9.99;68.60
76586;BME280;65251;51.022;13.736;2023-02-22T01:53:56;99397.84;;;10.01;68.38
76586;BME280;65251;51.022;13.736;2023-02-22T01:54:31;99400.53;;;10.01;68.41
76586;BME280;65251;51.022;13.736;2023-02-22T01:55:04;99404.19;;;10.00;68.12
76586;BME280;65251;51.022;13.736;2023-02-22T01:55:37;99397.03;;;10.01;69.06
76586;BME280;65251;51.022;13.736;2023-02-22T01:56:09;99396.22;;;10.00;69.33
76586;BME280;65251;51.022;13.736;2023-02-22T01:56:49;99392.72;;;10.00;69.28
76586;BME280;65251;51.022;13.736;2023-02-22T01:57:24;99399.69;;;10.01;69.41
76586;BME280;65251;51.022;13.736;2023-02-22T01:57:56;99394.38;;;10.01;69.23
76586;BME280;65251;51.022;13.736;2023-02-22T01:58:31;99401.34;;;10.02;68.32
76586;BME280;65251;51.022;13.736;2023-02-22T01:59:07;99398.69;;;10.02;68.15
76586;BME280;65251;51.022;13.736;2023-02-22T01:59:42;99395.81;;;10.03;68.05
76586;BME280;65251;51.022;13.736;2023-02-22T02:00:18;99400.13;;;10.05;68.11
76586;BME280;65251;51.022;13.736;2023-02-22T02:00:50;99398.47;;;10.03;68.52
76586;BME280;65251;51.022;13.736;2023-02-22T02:01:24;99400.13;;;10.05;69.19
76586;BME280;65251;51.022;13.736;2023-02-22T02:01:55;99396.25;;;10.07;69.33
76586;BME280;65251;51.022;13.736;2023-02-22T02:02:28;99398.91;;;10.07;67.90
76586;BME280;65251;51.022;13.736;2023-02-22T02:03:01;99396.25;;;10.07;68.93
76586;BME280;65251;51.022;13.736;2023-02-22T02:03:37;99396.06;;;10.09;69.10
76586;BME280;65251;51.022;13.736;2023-02-22T02:04:14;99398.72;;;10.09;68.73
76586;BME280;65251;51.022;13.736;2023-02-22T02:04:45;99394.22;;;10.09;69.13
76586;BME280;65251;51.022;13.736;2023-02-22T02:05:16;99384.38;;;10.10;67.90
76586;BME280;65251;51.022;13.736;2023-02-22T02:05:51;99394.84;;;10.11;67.80
76586;BME280;65251;51.022;13.736;2023-02-22T02:06:24;99394.84;;;10.11;67.81
76586;BME280;65251;51.022;13.736;2023-02-22T02:07:00;99396.50;;;10.12;68.86
76586;BME280;65251;51.022;13.736;2023-02-22T02:07:35;99395.25;;;10.08;68.42
76586;BME280;65251;51.022;13.736;2023-02-22T02:08:17;99398.13;;;10.13;68.35
76586;BME280;65251;51.022;13.736;2023-02-22T02:08:58;99394.44;;;10.14;68.97
76586;BME280;65251;51.022;13.736;2023-02-22T02:09:37;99398.56;;;10.17;69.15
76586;BME280;65251;51.022;13.736;2023-02-22T02:10:13;99396.09;;;10.15;68.92
76586;BME280;65251;51.022;13.736;2023-02-22T02:10:47;99391.38;;;10.11;69.45
76586;BME280;65251;51.022;13.736;2023-02-22T02:11:22;99394.84;;;10.11;69.32
76586;BME280;65251;51.022;13.736;2023-02-22T02:11:57;99394.03;;;10.11;69.30
76586;BME280;65251;51.022;13.736;2023-02-22T02:12:34;99397.50;;;10.11;68.97
76586;BME280;65251;51.022;13.736;2023-02-22T02:13:05;99398.53;;;10.10;68.90
76586;BME280;65251;51.022;13.736;2023-02-22T02:13:36;99390.53;;;10.10;68.07
76586;BME280;65251;51.022;13.736;2023-02-22T02:14:09;99392.56;;;10.08;69.22
76586;BME280;65251;51.022;13.736;2023-02-22T02:14:40;99392.78;;;10.07;69.10
76586;BME280;65251;51.022;13.736;2023-02-22T02:15:21;99390.31;;;10.05;69.27
76586;BME280;65251;51.022;13.736;2023-02-22T02:15:53;99390.09;;;10.07;68.96
76586;BME280;65251;51.022;13.736;2023-02-22T02:16:33;99394.41;;;10.08;68.14
76586;BME280;65251;51.022;13.736;2023-02-22T02:17:06;99388.47;;;10.06;68.30
76586;BME280;65251;51.022;13.736;2023-02-22T02:17:39;99400.38;;;10.10;68.14
76586;BME280;65251;51.022;13.736;2023-02-22T02:18:12;99388.91;;;10.09;68.76
76586;BME280;65251;51.022;13.736;2023-02-22T02:18:43;99393.19;;;10.10;68.38
76586;BME280;65251;51.022;13.736;2023-02-22T02:19:25;99387.69;;;10.12;69.00
76586;BME280;65251;51.022;13.736;2023-02-22T02:20:09;99394.66;;;10.13;67.77
76586;BME280;65251;51.022;13.736;2023-02-22T02:20:53;99400.41;;;10.16;69.01
76586;BME280;65251;51.022;13.736;2023-02-22T02:21:44;99385.25;;;10.17;68.14
76586;BME280;65251;51.022;13.736;2023-02-22T02:22:29;99392.22;;;10.18;68.94
76586;BME280;65251;51.022;13.736;2023-02-22T02:23:16;99391.00;;;10.20;68.90
76586;BME280;65251;51.022;13.736;2023-02-22T02:24:17;99386.50;;;10.21;67.98
76586;BME280;65251;51.022;13.736;2023-02-22T02:26:43;99388.56;;;10.19;67.83
76586;BME280;65251;51.022;13.736;2023-02-22T02:27:24;99382.34;;;10.12;69.12
76586;BME280;65251;51.022;13.736;2023-02-22T02:28:26;99381.88;;;10.01;68.77
76586;BME280;65251;51.022;13.736;2023-02-22T02:29:43;99381.06;;;9.94;69.60
76586;BME280;65251;51.022;13.736;2023-02-22T02:30:48;99380.81;;;9.89;69.16
76586;BME280;65251;51.022;13.736;2023-02-22T02:31:53;99372.22;;;9.87;69.44
76586;BME280;65251;51.022;13.736;2023-02-22T02:32:35;99375.25;;;9.84;70.74
76586;BME280;65251;51.022;13.736;2023-02-22T02:33:17;99369.31;;;9.82;69.62
76586;BME280;65251;51.022;13.736;2023-02-22T02:34:01;99368.50;;;9.82;69.40
76586;BME280;65251;51.022;13.736;2023-02-22T02:34:44;99368.28;;;9.83;68.95
76586;BME280;65251;51.022;13.736;2023-02-22T02:35:28;99372.16;;;9.81;69.18
76586;BME280;65251;51.022;13.736;2023-02-22T02:36:09;99372.59;;;9.78;70.38
76586;BME280;65251;51.022;13.736;2023-02-22T02:36:46;99372.38;;;9.79;69.22
76586;BME280;65251;51.022;13.736;2023-02-22T02:37:32;99375.84;;;9.80;70.34
76586;BME280;65251;51.022;13.736;2023-02-22T02:38:15;99374.81;;;9.81;70.31
76586;BME280;65251;51.022;13.736;2023-02-22T02:38:54;99371.56;;;9.79;69.55
76586;BME280;65251;51.022;13.736;2023-02-22T02:39:34;99371.16;;;9.82;68.93
76586;BME280;65251;51.022;13.736;2023-02-22T02:40:15;99373.00;;;9.81;68.92
76586;BME280;65251;51.022;13.736;2023-02-22T02:40:55;99367.47;;;9.83;70.22
76586;BME280;65251;51.022;13.736;2023-02-22T02:41:36;99369.50;;;9.81;69.72
76586;BME280;65251;51.022;13.736;2023-02-22T02:42:14;99372.59;;;9.84;68.96
76586;BME280;65251;51.022;13.736;2023-02-22T02:42:53;99368.53;;;9.88;69.85
76586;BME280;65251;51.022;13.736;2023-02-22T02:43:31;99368.97;;;9.92;69.85
76586;BME280;65251;51.022;13.736;2023-02-22T02:44:10;99366.94;;;9.94;68.72
76586;BME280;65251;51.022;13.736;2023-02-22T02:44:50;99363.84;;;9.90;68.95
76586;BME280;65251;51.022;13.736;2023-02-22T02:45:31;99369.97;;;9.91;69.67
76586;BME280;65251;51.022;13.736;2023-02-22T02:46:07;99373.28;;;9.93;68.83
76586;BME280;65251;51.022;13.736;2023-02-22T02:46:48;99366.09;;;9.93;69.17
76586;BME280;65251;51.022;13.736;2023-02-22T02:47:27;99368.56;;;9.95;68.71
76586;BME280;65251;51.022;13.736;2023-02-22T02:48:02;99368.56;;;9.95;68.75
76586;BME280;65251;51.022;13.736;2023-02-22T02:48:42;99363.06;;;9.96;69.67
76586;BME280;65251;51.022;13.736;2023-02-22T02:49:21;99368.38;;;9.96;69.81
76586;BME280;65251;51.022;13.736;2023-02-22T02:49:59;99368.78;;;9.93;68.84
76586;BME280;65251;51.022;13.736;2023-02-22T02:50:39;99368.56;;;9.95;69.02
76586;BME280;65251;51.022;13.736;2023-02-22T02:51:14;99361.41;;;9.95;68.57
76586;BME280;65251;51.022;13.736;2023-02-22T02:51:50;99369.19;;;9.97;68.71
76586;BME280;65251;51.022;13.736;2023-02-22T02:52:25;99358.13;;;9.93;68.96
76586;BME280;65251;51.022;13.736;2023-02-22T02:53:01;99362.03;;;9.97;68.36
76586;BME280;65251;51.022;13.736;2023-02-22T02:53:38;99359.19;;;9.99;68.70
76586;BME280;65251;51.022;13.736;2023-02-22T02:54:12;99360.38;;;9.96;68.27
76586;BME280;65251;51.022;13.736;2023-02-22T02:54:45;99367.75;;;10.01;68.44
76586;BME280;65251;51.022;13.736;2023-02-22T02:55:17;99364.06;;;10.02;69.16
76586;BME280;65251;51.022;13.736;2023-02-22T02:55:48;99363.88;;;10.03;68.55
76586;BME280;65251;51.022;13.736;2023-02-22T02:56:20;99363.88;;;10.03;69.11
76586;BME280;65251;51.022;13.736;2023-02-22T02:56:55;99365.53;;;10.05;68.22
76586;BME280;65251;51.022;13.736;2023-02-22T02:57:26;99360.19;;;10.05;68.52
76586;BME280;65251;51.022;13.736;2023-02-22T02:57:58;99360.00;;;10.06;68.97
76586;BME280;65251;51.022;13.736;2023-02-22T02:58:29;99365.31;;;10.06;68.57
76586;BME280;65251;51.022;13.736;2023-02-22T02:59:00;99359.38;;;10.04;69.35
76586;BME280;65251;51.022;13.736;2023-02-22T02:59:34;99363.88;;;9.97;68.71
76586;BME280;65251;51.022;13.736;2023-02-22T03:00:08;99359.75;;;9.94;69.40
76586;BME280;65251;51.022;13.736;2023-02-22T03:00:56;99361.81;;;9.92;68.85
76586;BME280;65251;51.022;13.736;2023-02-22T03:01:48;99362.97;;;9.83;69.33
76586;BME280;65251;51.022;13.736;2023-02-22T03:02:38;99366.69;;;9.89;69.69
76586;BME280;65251;51.022;13.736;2023-02-22T03:03:31;99358.72;;;9.89;69.83
76586;BME280;65251;51.022;13.736;2023-02-22T03:04:32;99360.34;;;9.90;70.10